sensor_id;sensor_type;location;lat;lon;timestamp;temperature;humidity
11609;DHT22;5860;52.018;8.536;2022-10-16T00:00:40;14.40;99.90
11609;DHT22;5860;52.018;8.536;2022-10-16T00:03:08;14.40;99.90
11609;DHT22;5860;52.018;8.536;2022-10-16T00:05:41;14.40;99.90
11609;DHT22;5860;52.018;8.536;2022-10-16T00:08:10;14.40;99.90
11609;DHT22;5860;52.018;8.536;2022-10-16T00:10:37;14.50;99.90
11609;DHT22;5860;52.018;8.536;2022-10-16T00:13:05;14.50;99.90
11609;DHT22;5860;52.018;8.536;2022-10-16T00:15:38;14.50;99.90
11609;DHT22;5860;52.018;8.536;2022-10-16T00:18:05;14.50;99.90
11609;DHT22;5860;52.018;8.536;2022-10-16T00:20:35;14.50;99.90
11609;DHT22;5860;52.018;8.536;2022-10-16T00:23:04;14.50;99.90
11609;DHT22;5860;52.018;8.536;2022-10-16T00:25:32;14.50;99.90
11609;DHT22;5860;52.018;8.536;2022-10-16T00:28:02;14.40;99.90
11609;DHT22;5860;52.018;8.536;2022-10-16T00:30:29;14.40;99.90
11609;DHT22;5860;52.018;8.536;2022-10-16T00:32:56;14.50;99.90
11609;DHT22;5860;52.018;8.536;2022-10-16T00:35:23;14.50;99.90
11609;DHT22;5860;52.018;8.536;2022-10-16T00:37:50;14.40;99.90
11609;DHT22;5860;52.018;8.536;2022-10-16T00:40:17;14.40;99.90
11609;DHT22;5860;52.018;8.536;2022-10-16T00:42:44;14.40;99.90
11609;DHT22;5860;52.018;8.536;2022-10-16T00:45:10;14.40;99.90
11609;DHT22;5860;52.018;8.536;2022-10-16T00:47:42;14.40;99.90
11609;DHT22;5860;52.018;8.536;2022-10-16T00:50:27;14.40;99.90
11609;DHT22;5860;52.018;8.536;2022-10-16T00:52:55;14.50;99.90
11609;DHT22;5860;52.018;8.536;2022-10-16T00:55:22;14.40;99.90
11609;DHT22;5860;52.018;8.536;2022-10-16T00:57:50;14.30;99.90
11609;DHT22;5860;52.018;8.536;2022-10-16T01:00:22;14.30;99.90
11609;DHT22;5860;52.018;8.536;2022-10-16T01:02:57;14.30;99.90
11609;DHT22;5860;52.018;8.536;2022-10-16T01:05:33;14.40;99.90
11609;DHT22;5860;52.018;8.536;2022-10-16T01:08:18;14.40;99.90
11609;DHT22;5860;52.018;8.536;2022-10-16T01:10:57;14.30;99.90
11609;DHT22;5860;52.018;8.536;2022-10-16T01:13:25;14.30;99.90
11609;DHT22;5860;52.018;8.536;2022-10-16T01:15:59;14.30;99.90
11609;DHT22;5860;52.018;8.536;2022-10-16T01:18:52;14.30;99.90
11609;DHT22;5860;52.018;8.536;2022-10-16T01:21:27;14.40;99.90
11609;DHT22;5860;52.018;8.536;2022-10-16T01:34:59;14.30;99.90
11609;DHT22;5860;52.018;8.536;2022-10-16T01:37:53;14.30;99.90
11609;DHT22;5860;52.018;8.536;2022-10-16T01:40:24;14.30;99.90
11609;DHT22;5860;52.018;8.536;2022-10-16T01:42:59;14.20;99.90
11609;DHT22;5860;52.018;8.536;2022-10-16T01:45:28;14.30;99.90
11609;DHT22;5860;52.018;8.536;2022-10-16T01:47:57;14.20;99.90
11609;DHT22;5860;52.018;8.536;2022-10-16T01:50:26;14.30;99.90
11609;DHT22;5860;52.018;8.536;2022-10-16T01:52:55;14.30;99.90
11609;DHT22;5860;52.018;8.536;2022-10-16T01:55:28;14.30;99.90
11609;DHT22;5860;52.018;8.536;2022-10-16T01:57:57;14.40;99.90
11609;DHT22;5860;52.018;8.536;2022-10-16T02:00:26;14.40;99.90
11609;DHT22;5860;52.018;8.536;2022-10-16T02:02:55;14.30;99.90
11609;DHT22;5860;52.018;8.536;2022-10-16T02:05:34;14.30;99.90
11609;DHT22;5860;52.018;8.536;2022-10-16T02:08:04;14.30;99.90
11609;DHT22;5860;52.018;8.536;2022-10-16T02:10:32;14.20;99.90
11609;DHT22;5860;52.018;8.536;2022-10-16T02:13:06;14.20;99.90
11609;DHT22;5860;52.018;8.536;2022-10-16T02:15:33;14.20;99.90
11609;DHT22;5860;52.018;8.536;2022-10-16T02:18:02;14.10;99.90
11609;DHT22;5860;52.018;8.536;2022-10-16T02:20:55;14.10;99.90
11609;DHT22;5860;52.018;8.536;2022-10-16T02:23:36;14.10;99.90
11609;DHT22;5860;52.018;8.536;2022-10-16T02:26:06;14.10;99.90
11609;DHT22;5860;52.018;8.536;2022-10-16T02:28:42;14.10;99.90
11609;DHT22;5860;52.018;8.536;2022-10-16T02:31:13;14.20;99.90
11609;DHT22;5860;52.018;8.536;2022-10-16T02:33:43;14.10;99.90
11609;DHT22;5860;52.018;8.536;2022-10-16T02:36:11;14.10;99.90
11609;DHT22;5860;52.018;8.536;2022-10-16T02:38:39;14.00;99.90
11609;DHT22;5860;52.018;8.536;2022-10-16T02:41:07;14.10;99.90
11609;DHT22;5860;52.018;8.536;2022-10-16T02:43:34;14.10;99.90
11609;DHT22;5860;52.018;8.536;2022-10-16T02:46:01;14.20;99.90
11609;DHT22;5860;52.018;8.536;2022-10-16T02:48:28;14.30;99.90
11609;DHT22;5860;52.018;8.536;2022-10-16T02:50:55;14.30;99.90
11609;DHT22;5860;52.018;8.536;2022-10-16T02:53:21;14.30;99.90
11609;DHT22;5860;52.018;8.536;2022-10-16T02:55:48;14.40;99.90
11609;DHT22;5860;52.018;8.536;2022-10-16T02:58:15;14.40;99.90
11609;DHT22;5860;52.018;8.536;2022-10-16T03:00:42;14.50;99.90
11609;DHT22;5860;52.018;8.536;2022-10-16T03:03:09;14.40;99.90
11609;DHT22;5860;52.018;8.536;2022-10-16T03:05:36;14.60;99.90
11609;DHT22;5860;52.018;8.536;2022-10-16T03:08:03;14.50;99.90
11609;DHT22;5860;52.018;8.536;2022-10-16T03:10:30;14.60;99.90
11609;DHT22;5860;52.018;8.536;2022-10-16T03:12:57;14.60;99.90
11609;DHT22;5860;52.018;8.536;2022-10-16T03:15:24;14.80;99.90
11609;DHT22;5860;52.018;8.536;2022-10-16T03:17:50;14.80;99.90
11609;DHT22;5860;52.018;8.536;2022-10-16T03:20:17;14.80;99.90
11609;DHT22;5860;52.018;8.536;2022-10-16T03:22:44;14.80;99.90
11609;DHT22;5860;52.018;8.536;2022-10-16T03:25:11;14.70;99.90
11609;DHT22;5860;52.018;8.536;2022-10-16T03:27:38;14.70;99.90
11609;DHT22;5860;52.018;8.536;2022-10-16T03:30:05;14.70;99.90
11609;DHT22;5860;52.018;8.536;2022-10-16T03:32:32;14.60;99.90
11609;DHT22;5860;52.018;8.536;2022-10-16T03:34:58;14.60;99.90
11609;DHT22;5860;52.018;8.536;2022-10-16T03:37:25;14.50;99.90
11609;DHT22;5860;52.018;8.536;2022-10-16T03:39:53;14.50;99.90
11609;DHT22;5860;52.018;8.536;2022-10-16T03:42:19;14.50;99.90
11609;DHT22;5860;52.018;8.536;2022-10-16T03:44:46;14.50;99.90
11609;DHT22;5860;52.018;8.536;2022-10-16T03:47:13;14.40;99.90
11609;DHT22;5860;52.018;8.536;2022-10-16T03:49:40;14.30;99.90
11609;DHT22;5860;52.018;8.536;2022-10-16T03:52:07;14.30;99.90
11609;DHT22;5860;52.018;8.536;2022-10-16T03:54:33;14.40;99.90
11609;DHT22;5860;52.018;8.536;2022-10-16T03:57:00;14.50;99.90
11609;DHT22;5860;52.018;8.536;2022-10-16T03:59:27;14.40;99.90
11609;DHT22;5860;52.018;8.536;2022-10-16T04:01:54;14.40;99.90
11609;DHT22;5860;52.018;8.536;2022-10-16T04:04:21;14.40;99.90
11609;DHT22;5860;52.018;8.536;2022-10-16T04:06:47;14.40;99.90
11609;DHT22;5860;52.018;8.536;2022-10-16T04:09:14;14.50;99.90
11609;DHT22;5860;52.018;8.536;2022-10-16T04:11:41;14.50;99.90
11609;DHT22;5860;52.018;8.536;2022-10-16T04:14:08;14.50;99.90
11609;DHT22;5860;52.018;8.536;2022-10-16T04:16:34;14.50;99.90
11609;DHT22;5860;52.018;8.536;2022-10-16T04:19:01;14.50;99.90
11609;DHT22;5860;52.018;8.536;2022-10-16T04:21:28;14.70;99.90
11609;DHT22;5860;52.018;8.536;2022-10-16T04:23:55;14.80;99.90
11609;DHT22;5860;52.018;8.536;2022-10-16T04:26:22;14.70;99.90
11609;DHT22;5860;52.018;8.536;2022-10-16T04:28:49;14.60;99.90
11609;DHT22;5860;52.018;8.536;2022-10-16T04:31:16;14.60;99.90
11609;DHT22;5860;52.018;8.536;2022-10-16T04:33:43;14.60;99.90
11609;DHT22;5860;52.018;8.536;2022-10-16T04:36:10;14.60;99.90
11609;DHT22;5860;52.018;8.536;2022-10-16T04:38:37;14.50;99.90
11609;DHT22;5860;52.018;8.536;2022-10-16T04:41:04;14.50;99.90
11609;DHT22;5860;52.018;8.536;2022-10-16T04:43:31;14.50;99.90
11609;DHT22;5860;52.018;8.536;2022-10-16T04:45:58;14.50;99.90
11609;DHT22;5860;52.018;8.536;2022-10-16T04:48:25;14.50;99.90
11609;DHT22;5860;52.018;8.536;2022-10-16T04:50:51;14.50;99.90
11609;DHT22;5860;52.018;8.536;2022-10-16T04:53:20;14.60;99.90
11609;DHT22;5860;52.018;8.536;2022-10-16T04:55:48;14.60;99.90
11609;DHT22;5860;52.018;8.536;2022-10-16T04:58:14;14.60;99.90
11609;DHT22;5860;52.018;8.536;2022-10-16T05:00:41;14.60;99.90
11609;DHT22;5860;52.018;8.536;2022-10-16T05:03:08;14.60;99.90
11609;DHT22;5860;52.018;8.536;2022-10-16T05:05:36;14.60;99.90
11609;DHT22;5860;52.018;8.536;2022-10-16T05:08:03;14.60;99.90
11609;DHT22;5860;52.018;8.536;2022-10-16T05:10:30;14.70;99.90
11609;DHT22;5860;52.018;8.536;2022-10-16T05:12:57;14.70;99.90
11609;DHT22;5860;52.018;8.536;2022-10-16T05:15:24;14.60;99.90
11609;DHT22;5860;52.018;8.536;2022-10-16T05:17:55;14.60;99.90
11609;DHT22;5860;52.018;8.536;2022-10-16T05:20:22;14.50;99.90
11609;DHT22;5860;52.018;8.536;2022-10-16T05:22:49;14.50;99.90
11609;DHT22;5860;52.018;8.536;2022-10-16T05:25:16;14.50;99.90
11609;DHT22;5860;52.018;8.536;2022-10-16T05:27:46;14.50;99.90
11609;DHT22;5860;52.018;8.536;2022-10-16T05:30:13;14.40;99.90
11609;DHT22;5860;52.018;8.536;2022-10-16T05:32:40;14.40;99.90
11609;DHT22;5860;52.018;8.536;2022-10-16T05:35:07;14.30;99.90
11609;DHT22;5860;52.018;8.536;2022-10-16T05:37:38;14.30;99.90
11609;DHT22;5860;52.018;8.536;2022-10-16T05:40:05;14.30;99.90
11609;DHT22;5860;52.018;8.536;2022-10-16T05:42:32;14.30;99.90
11609;DHT22;5860;52.018;8.536;2022-10-16T05:44:59;14.20;99.90
11609;DHT22;5860;52.018;8.536;2022-10-16T05:47:26;14.30;99.90
11609;DHT22;5860;52.018;8.536;2022-10-16T05:49:53;14.20;99.90
11609;DHT22;5860;52.018;8.536;2022-10-16T05:52:20;14.30;99.90
11609;DHT22;5860;52.018;8.536;2022-10-16T05:54:47;14.30;99.90
11609;DHT22;5860;52.018;8.536;2022-10-16T05:57:14;14.40;99.90
11609;DHT22;5860;52.018;8.536;2022-10-16T05:59:41;14.40;99.90
11609;DHT22;5860;52.018;8.536;2022-10-16T06:02:12;14.50;99.90
11609;DHT22;5860;52.018;8.536;2022-10-16T06:04:39;14.50;99.90
11609;DHT22;5860;52.018;8.536;2022-10-16T06:07:06;14.40;99.90
11609;DHT22;5860;52.018;8.536;2022-10-16T06:09:33;14.50;99.90
11609;DHT22;5860;52.018;8.536;2022-10-16T06:12:00;14.50;99.90
11609;DHT22;5860;52.018;8.536;2022-10-16T06:14:26;14.50;99.90
11609;DHT22;5860;52.018;8.536;2022-10-16T06:16:53;14.40;99.90
11609;DHT22;5860;52.018;8.536;2022-10-16T06:19:20;14.50;99.90
11609;DHT22;5860;52.018;8.536;2022-10-16T06:21:47;14.60;99.90
11609;DHT22;5860;52.018;8.536;2022-10-16T06:24:14;14.60;99.90
11609;DHT22;5860;52.018;8.536;2022-10-16T06:26:41;14.70;99.90
11609;DHT22;5860;52.018;8.536;2022-10-16T06:29:08;14.60;99.90
11609;DHT22;5860;52.018;8.536;2022-10-16T06:31:35;14.80;99.90
11609;DHT22;5860;52.018;8.536;2022-10-16T06:34:02;14.80;99.90
11609;DHT22;5860;52.018;8.536;2022-10-16T06:36:31;14.90;99.90
11609;DHT22;5860;52.018;8.536;2022-10-16T06:41:25;15.10;99.90
11609;DHT22;5860;52.018;8.536;2022-10-16T06:43:52;15.10;99.90
11609;DHT22;5860;52.018;8.536;2022-10-16T06:46:21;15.20;99.90
11609;DHT22;5860;52.018;8.536;2022-10-16T06:48:48;15.20;99.90
11609;DHT22;5860;52.018;8.536;2022-10-16T06:51:20;15.10;99.90
11609;DHT22;5860;52.018;8.536;2022-10-16T06:53:55;15.10;99.90
11609;DHT22;5860;52.018;8.536;2022-10-16T06:56:31;15.10;99.90
11609;DHT22;5860;52.018;8.536;2022-10-16T06:58:59;15.10;99.90
11609;DHT22;5860;52.018;8.536;2022-10-16T07:01:27;15.10;99.90
11609;DHT22;5860;52.018;8.536;2022-10-16T07:03:54;15.20;99.90
11609;DHT22;5860;52.018;8.536;2022-10-16T07:06:24;15.20;99.90
11609;DHT22;5860;52.018;8.536;2022-10-16T07:08:52;15.30;99.90
11609;DHT22;5860;52.018;8.536;2022-10-16T07:11:20;15.40;99.90
11609;DHT22;5860;52.018;8.536;2022-10-16T07:13:48;15.50;99.90
11609;DHT22;5860;52.018;8.536;2022-10-16T07:16:25;15.50;99.90
11609;DHT22;5860;52.018;8.536;2022-10-16T07:18:57;15.60;99.90
11609;DHT22;5860;52.018;8.536;2022-10-16T07:21:31;15.60;99.90
11609;DHT22;5860;52.018;8.536;2022-10-16T07:24:02;15.60;99.90
11609;DHT22;5860;52.018;8.536;2022-10-16T07:26:32;15.80;99.90
11609;DHT22;5860;52.018;8.536;2022-10-16T07:28:59;15.70;99.90
11609;DHT22;5860;52.018;8.536;2022-10-16T07:31:27;15.90;99.90
11609;DHT22;5860;52.018;8.536;2022-10-16T07:33:55;15.90;99.90
11609;DHT22;5860;52.018;8.536;2022-10-16T07:36:25;16.00;99.90
11609;DHT22;5860;52.018;8.536;2022-10-16T07:38:52;16.10;99.90
11609;DHT22;5860;52.018;8.536;2022-10-16T07:41:24;16.10;99.90
11609;DHT22;5860;52.018;8.536;2022-10-16T07:43:53;16.30;99.90
11609;DHT22;5860;52.018;8.536;2022-10-16T07:46:22;16.30;99.90
11609;DHT22;5860;52.018;8.536;2022-10-16T07:48:49;16.20;99.90
11609;DHT22;5860;52.018;8.536;2022-10-16T07:51:19;16.20;99.90
11609;DHT22;5860;52.018;8.536;2022-10-16T07:53:47;16.10;99.90
11609;DHT22;5860;52.018;8.536;2022-10-16T07:56:15;16.00;99.90
11609;DHT22;5860;52.018;8.536;2022-10-16T07:58:42;15.80;99.90
11609;DHT22;5860;52.018;8.536;2022-10-16T08:01:11;15.70;99.90
11609;DHT22;5860;52.018;8.536;2022-10-16T08:03:47;15.70;99.90
11609;DHT22;5860;52.018;8.536;2022-10-16T08:06:15;15.60;99.90
11609;DHT22;5860;52.018;8.536;2022-10-16T08:08:42;15.60;99.90
11609;DHT22;5860;52.018;8.536;2022-10-16T08:11:09;15.80;99.90
11609;DHT22;5860;52.018;8.536;2022-10-16T08:13:36;15.90;99.90
11609;DHT22;5860;52.018;8.536;2022-10-16T08:16:03;15.90;99.90
11609;DHT22;5860;52.018;8.536;2022-10-16T08:18:38;16.00;99.90
11609;DHT22;5860;52.018;8.536;2022-10-16T08:21:07;16.00;99.90
11609;DHT22;5860;52.018;8.536;2022-10-16T08:23:34;16.10;99.90
11609;DHT22;5860;52.018;8.536;2022-10-16T08:26:06;16.20;99.90
11609;DHT22;5860;52.018;8.536;2022-10-16T08:28:34;16.20;99.90
11609;DHT22;5860;52.018;8.536;2022-10-16T08:31:12;16.20;99.90
11609;DHT22;5860;52.018;8.536;2022-10-16T08:33:41;16.30;99.90
11609;DHT22;5860;52.018;8.536;2022-10-16T08:36:10;16.30;99.90
11609;DHT22;5860;52.018;8.536;2022-10-16T08:38:38;16.40;99.90
11609;DHT22;5860;52.018;8.536;2022-10-16T08:44:03;16.40;99.90
11609;DHT22;5860;52.018;8.536;2022-10-16T08:49:16;16.60;99.90
11609;DHT22;5860;52.018;8.536;2022-10-16T08:51:44;16.80;99.90
11609;DHT22;5860;52.018;8.536;2022-10-16T08:56:49;16.70;99.90
11609;DHT22;5860;52.018;8.536;2022-10-16T08:59:17;16.80;99.90
11609;DHT22;5860;52.018;8.536;2022-10-16T09:01:46;16.90;99.90
11609;DHT22;5860;52.018;8.536;2022-10-16T09:07:35;17.00;99.90
11609;DHT22;5860;52.018;8.536;2022-10-16T09:12:53;17.10;99.90
11609;DHT22;5860;52.018;8.536;2022-10-16T09:15:36;17.20;99.90
11609;DHT22;5860;52.018;8.536;2022-10-16T09:21:24;17.20;99.90
11609;DHT22;5860;52.018;8.536;2022-10-16T09:23:53;17.40;99.90
11609;DHT22;5860;52.018;8.536;2022-10-16T09:26:23;17.30;99.90
11609;DHT22;5860;52.018;8.536;2022-10-16T09:28:55;17.50;99.90
11609;DHT22;5860;52.018;8.536;2022-10-16T09:31:23;17.40;99.90
11609;DHT22;5860;52.018;8.536;2022-10-16T09:34:00;17.50;99.90
11609;DHT22;5860;52.018;8.536;2022-10-16T09:36:42;17.50;99.90
11609;DHT22;5860;52.018;8.536;2022-10-16T09:39:11;17.60;99.90
11609;DHT22;5860;52.018;8.536;2022-10-16T09:41:41;17.70;99.90
11609;DHT22;5860;52.018;8.536;2022-10-16T09:44:29;17.50;99.90
11609;DHT22;5860;52.018;8.536;2022-10-16T09:47:27;17.40;99.90
11609;DHT22;5860;52.018;8.536;2022-10-16T09:49:55;17.30;99.90
11609;DHT22;5860;52.018;8.536;2022-10-16T09:52:24;17.30;99.90
11609;DHT22;5860;52.018;8.536;2022-10-16T09:54:56;17.20;99.90
11609;DHT22;5860;52.018;8.536;2022-10-16T09:57:23;17.10;99.90
11609;DHT22;5860;52.018;8.536;2022-10-16T09:59:56;17.20;99.90
11609;DHT22;5860;52.018;8.536;2022-10-16T10:02:38;17.30;99.90
11609;DHT22;5860;52.018;8.536;2022-10-16T10:05:22;17.40;99.90
11609;DHT22;5860;52.018;8.536;2022-10-16T10:07:59;17.70;99.90
11609;DHT22;5860;52.018;8.536;2022-10-16T10:10:30;18.00;99.90
11609;DHT22;5860;52.018;8.536;2022-10-16T10:12:59;18.00;99.90
11609;DHT22;5860;52.018;8.536;2022-10-16T10:15:27;18.10;99.90
11609;DHT22;5860;52.018;8.536;2022-10-16T10:17:57;18.00;99.90
11609;DHT22;5860;52.018;8.536;2022-10-16T10:20:36;18.00;99.90
11609;DHT22;5860;52.018;8.536;2022-10-16T10:23:34;18.10;99.90
11609;DHT22;5860;52.018;8.536;2022-10-16T10:26:15;18.10;99.90
11609;DHT22;5860;52.018;8.536;2022-10-16T10:29:04;18.20;99.90
11609;DHT22;5860;52.018;8.536;2022-10-16T10:36:52;18.50;99.90
11609;DHT22;5860;52.018;8.536;2022-10-16T10:39:33;18.60;99.90
11609;DHT22;5860;52.018;8.536;2022-10-16T10:42:35;18.60;99.90
11609;DHT22;5860;52.018;8.536;2022-10-16T10:45:27;18.40;99.90
11609;DHT22;5860;52.018;8.536;2022-10-16T10:51:01;18.30;99.90
11609;DHT22;5860;52.018;8.536;2022-10-16T10:54:17;18.50;99.90
11609;DHT22;5860;52.018;8.536;2022-10-16T10:56:52;18.70;99.90
11609;DHT22;5860;52.018;8.536;2022-10-16T10:59:46;18.90;99.90
11609;DHT22;5860;52.018;8.536;2022-10-16T11:05:45;19.00;99.90
11609;DHT22;5860;52.018;8.536;2022-10-16T11:08:18;18.90;99.90
11609;DHT22;5860;52.018;8.536;2022-10-16T11:11:14;19.10;99.90
11609;DHT22;5860;52.018;8.536;2022-10-16T11:14:00;19.00;99.90
11609;DHT22;5860;52.018;8.536;2022-10-16T11:16:35;18.90;99.90
11609;DHT22;5860;52.018;8.536;2022-10-16T11:19:22;19.00;99.90
11609;DHT22;5860;52.018;8.536;2022-10-16T11:22:01;19.20;99.90
11609;DHT22;5860;52.018;8.536;2022-10-16T11:24:46;19.30;99.90
11609;DHT22;5860;52.018;8.536;2022-10-16T11:27:18;19.50;99.90
11609;DHT22;5860;52.018;8.536;2022-10-16T11:29:57;19.80;99.90
11609;DHT22;5860;52.018;8.536;2022-10-16T11:32:33;19.80;99.90
11609;DHT22;5860;52.018;8.536;2022-10-16T11:35:25;19.60;99.90
11609;DHT22;5860;52.018;8.536;2022-10-16T11:37:58;19.60;99.90
11609;DHT22;5860;52.018;8.536;2022-10-16T11:40:31;19.50;99.90
11609;DHT22;5860;52.018;8.536;2022-10-16T11:43:13;19.40;99.90
11609;DHT22;5860;52.018;8.536;2022-10-16T11:45:52;19.10;99.90
11609;DHT22;5860;52.018;8.536;2022-10-16T11:48:38;18.60;99.90
11609;DHT22;5860;52.018;8.536;2022-10-16T11:56:38;18.20;99.90
11609;DHT22;5860;52.018;8.536;2022-10-16T11:59:24;18.20;99.90
11609;DHT22;5860;52.018;8.536;2022-10-16T12:05:20;18.20;99.90
11609;DHT22;5860;52.018;8.536;2022-10-16T12:08:13;18.30;99.90
11609;DHT22;5860;52.018;8.536;2022-10-16T12:10:44;18.40;99.90
11609;DHT22;5860;52.018;8.536;2022-10-16T12:13:34;18.50;99.90
11609;DHT22;5860;52.018;8.536;2022-10-16T12:18:42;18.60;99.90
11609;DHT22;5860;52.018;8.536;2022-10-16T12:21:10;18.80;99.90
11609;DHT22;5860;52.018;8.536;2022-10-16T12:26:23;18.90;99.90
11609;DHT22;5860;52.018;8.536;2022-10-16T12:28:50;19.00;99.90
11609;DHT22;5860;52.018;8.536;2022-10-16T12:31:18;19.20;99.90
11609;DHT22;5860;52.018;8.536;2022-10-16T12:34:01;19.20;99.90
11609;DHT22;5860;52.018;8.536;2022-10-16T12:36:35;19.20;99.90
11609;DHT22;5860;52.018;8.536;2022-10-16T12:39:02;19.10;99.90
11609;DHT22;5860;52.018;8.536;2022-10-16T12:41:31;19.20;99.90
11609;DHT22;5860;52.018;8.536;2022-10-16T12:43:59;19.20;99.90
11609;DHT22;5860;52.018;8.536;2022-10-16T12:51:42;18.90;99.90
11609;DHT22;5860;52.018;8.536;2022-10-16T13:00:32;18.90;99.90
11609;DHT22;5860;52.018;8.536;2022-10-16T13:08:48;18.90;99.90
11609;DHT22;5860;52.018;8.536;2022-10-16T13:11:56;18.90;99.90
11609;DHT22;5860;52.018;8.536;2022-10-16T13:14:32;18.80;99.90
11609;DHT22;5860;52.018;8.536;2022-10-16T13:20:06;18.70;99.90
11609;DHT22;5860;52.018;8.536;2022-10-16T13:23:15;18.60;99.90
11609;DHT22;5860;52.018;8.536;2022-10-16T13:28:18;18.70;99.90
11609;DHT22;5860;52.018;8.536;2022-10-16T13:30:54;18.70;99.90
11609;DHT22;5860;52.018;8.536;2022-10-16T13:33:55;18.90;99.90
11609;DHT22;5860;52.018;8.536;2022-10-16T13:36:29;18.80;99.90
11609;DHT22;5860;52.018;8.536;2022-10-16T13:39:26;18.80;99.90
11609;DHT22;5860;52.018;8.536;2022-10-16T13:42:10;18.80;99.90
11609;DHT22;5860;52.018;8.536;2022-10-16T13:44:51;18.80;99.90
11609;DHT22;5860;52.018;8.536;2022-10-16T13:47:23;18.70;99.90
11609;DHT22;5860;52.018;8.536;2022-10-16T13:50:08;18.60;99.90
11609;DHT22;5860;52.018;8.536;2022-10-16T13:52:37;18.70;99.90
11609;DHT22;5860;52.018;8.536;2022-10-16T13:55:11;18.70;99.90
11609;DHT22;5860;52.018;8.536;2022-10-16T13:57:38;18.50;99.90
11609;DHT22;5860;52.018;8.536;2022-10-16T14:00:22;18.40;99.90
11609;DHT22;5860;52.018;8.536;2022-10-16T14:03:01;18.30;99.90
11609;DHT22;5860;52.018;8.536;2022-10-16T14:05:29;18.30;99.90
11609;DHT22;5860;52.018;8.536;2022-10-16T14:07:57;18.30;99.90
11609;DHT22;5860;52.018;8.536;2022-10-16T14:10:26;18.20;99.90
11609;DHT22;5860;52.018;8.536;2022-10-16T14:13:04;18.20;99.90
11609;DHT22;5860;52.018;8.536;2022-10-16T14:15:34;18.20;99.90
11609;DHT22;5860;52.018;8.536;2022-10-16T14:18:02;18.20;99.90
11609;DHT22;5860;52.018;8.536;2022-10-16T14:20:33;18.20;99.90
11609;DHT22;5860;52.018;8.536;2022-10-16T14:23:20;18.20;99.90
11609;DHT22;5860;52.018;8.536;2022-10-16T14:25:48;18.20;99.90
11609;DHT22;5860;52.018;8.536;2022-10-16T14:28:18;18.20;99.90
11609;DHT22;5860;52.018;8.536;2022-10-16T14:30:57;18.30;99.90
11609;DHT22;5860;52.018;8.536;2022-10-16T14:38:29;18.30;99.90
11609;DHT22;5860;52.018;8.536;2022-10-16T14:40:58;18.20;99.90
11609;DHT22;5860;52.018;8.536;2022-10-16T14:43:40;18.20;99.90
11609;DHT22;5860;52.018;8.536;2022-10-16T14:46:16;18.30;99.90
11609;DHT22;5860;52.018;8.536;2022-10-16T14:48:46;18.20;99.90
11609;DHT22;5860;52.018;8.536;2022-10-16T14:51:18;18.10;99.90
11609;DHT22;5860;52.018;8.536;2022-10-16T14:53:45;18.00;99.90
11609;DHT22;5860;52.018;8.536;2022-10-16T14:56:24;17.90;99.90
11609;DHT22;5860;52.018;8.536;2022-10-16T14:58:54;17.90;99.90
11609;DHT22;5860;52.018;8.536;2022-10-16T15:01:21;17.70;99.90
11609;DHT22;5860;52.018;8.536;2022-10-16T15:03:49;17.70;99.90
11609;DHT22;5860;52.018;8.536;2022-10-16T15:06:19;17.60;99.90
11609;DHT22;5860;52.018;8.536;2022-10-16T15:08:45;17.70;99.90
11609;DHT22;5860;52.018;8.536;2022-10-16T15:11:15;17.70;99.90
11609;DHT22;5860;52.018;8.536;2022-10-16T15:13:42;17.90;99.90
11609;DHT22;5860;52.018;8.536;2022-10-16T15:16:14;17.80;99.90
11609;DHT22;5860;52.018;8.536;2022-10-16T15:18:42;17.90;99.90
11609;DHT22;5860;52.018;8.536;2022-10-16T15:21:27;18.00;99.90
11609;DHT22;5860;52.018;8.536;2022-10-16T15:23:54;17.90;99.90
11609;DHT22;5860;52.018;8.536;2022-10-16T15:26:21;17.80;99.90
11609;DHT22;5860;52.018;8.536;2022-10-16T15:28:47;17.70;99.90
11609;DHT22;5860;52.018;8.536;2022-10-16T15:31:15;17.60;99.90
11609;DHT22;5860;52.018;8.536;2022-10-16T15:33:41;17.50;99.90
11609;DHT22;5860;52.018;8.536;2022-10-16T15:36:08;17.40;99.90
11609;DHT22;5860;52.018;8.536;2022-10-16T15:38:36;17.30;99.90
11609;DHT22;5860;52.018;8.536;2022-10-16T15:41:02;17.30;99.90
11609;DHT22;5860;52.018;8.536;2022-10-16T15:43:29;17.30;99.90
11609;DHT22;5860;52.018;8.536;2022-10-16T15:46:03;17.30;99.90
11609;DHT22;5860;52.018;8.536;2022-10-16T15:48:31;17.10;99.90
11609;DHT22;5860;52.018;8.536;2022-10-16T15:50:59;16.90;99.90
11609;DHT22;5860;52.018;8.536;2022-10-16T15:53:26;16.80;99.90
11609;DHT22;5860;52.018;8.536;2022-10-16T15:55:53;16.70;99.90
11609;DHT22;5860;52.018;8.536;2022-10-16T15:58:19;16.60;99.90
11609;DHT22;5860;52.018;8.536;2022-10-16T16:00:54;16.60;99.90
11609;DHT22;5860;52.018;8.536;2022-10-16T16:03:22;16.50;99.90
11609;DHT22;5860;52.018;8.536;2022-10-16T16:05:49;16.50;99.90
11609;DHT22;5860;52.018;8.536;2022-10-16T16:08:16;16.40;99.90
11609;DHT22;5860;52.018;8.536;2022-10-16T16:10:43;16.40;99.90
11609;DHT22;5860;52.018;8.536;2022-10-16T16:13:10;16.40;99.90
11609;DHT22;5860;52.018;8.536;2022-10-16T16:15:40;16.40;99.90
11609;DHT22;5860;52.018;8.536;2022-10-16T16:18:07;16.30;99.90
11609;DHT22;5860;52.018;8.536;2022-10-16T16:20:36;16.30;99.90
11609;DHT22;5860;52.018;8.536;2022-10-16T16:23:03;16.20;99.90
11609;DHT22;5860;52.018;8.536;2022-10-16T16:25:30;16.20;99.90
11609;DHT22;5860;52.018;8.536;2022-10-16T16:27:57;16.10;99.90
11609;DHT22;5860;52.018;8.536;2022-10-16T16:30:24;16.10;99.90
11609;DHT22;5860;52.018;8.536;2022-10-16T16:32:54;16.10;99.90
11609;DHT22;5860;52.018;8.536;2022-10-16T16:35:21;16.10;99.90
11609;DHT22;5860;52.018;8.536;2022-10-16T16:37:47;16.10;99.90
11609;DHT22;5860;52.018;8.536;2022-10-16T16:40:15;16.00;99.90
11609;DHT22;5860;52.018;8.536;2022-10-16T16:42:42;16.00;99.90
11609;DHT22;5860;52.018;8.536;2022-10-16T16:45:09;16.00;99.90
11609;DHT22;5860;52.018;8.536;2022-10-16T16:47:35;16.00;99.90
11609;DHT22;5860;52.018;8.536;2022-10-16T16:50:02;16.00;99.90
11609;DHT22;5860;52.018;8.536;2022-10-16T16:52:31;15.90;99.90
11609;DHT22;5860;52.018;8.536;2022-10-16T16:54:58;15.90;99.90
11609;DHT22;5860;52.018;8.536;2022-10-16T16:57:25;15.90;99.90
11609;DHT22;5860;52.018;8.536;2022-10-16T16:59:52;15.90;99.90
11609;DHT22;5860;52.018;8.536;2022-10-16T17:02:19;15.90;99.90
11609;DHT22;5860;52.018;8.536;2022-10-16T17:04:46;15.90;99.90
11609;DHT22;5860;52.018;8.536;2022-10-16T17:07:13;15.90;99.90
11609;DHT22;5860;52.018;8.536;2022-10-16T17:09:40;15.80;99.90
11609;DHT22;5860;52.018;8.536;2022-10-16T17:12:07;15.80;99.90
11609;DHT22;5860;52.018;8.536;2022-10-16T17:14:34;15.80;99.90
11609;DHT22;5860;52.018;8.536;2022-10-16T17:17:00;15.70;99.90
11609;DHT22;5860;52.018;8.536;2022-10-16T17:19:27;15.70;99.90
11609;DHT22;5860;52.018;8.536;2022-10-16T17:21:54;15.70;99.90
11609;DHT22;5860;52.018;8.536;2022-10-16T17:24:21;15.70;99.90
11609;DHT22;5860;52.018;8.536;2022-10-16T17:26:48;15.60;99.90
11609;DHT22;5860;52.018;8.536;2022-10-16T17:29:17;15.50;99.90
11609;DHT22;5860;52.018;8.536;2022-10-16T17:31:45;15.40;99.90
11609;DHT22;5860;52.018;8.536;2022-10-16T17:34:15;15.50;99.90